Time;durP1;ratioP1;P1;durP2;ratioP2;P2;SDS_P1;SDS_P2;PMS_P1;PMS_P2;Temp;Humidity;BMP_temperature;BMP_pressure;BME280_temperature;BME280_humidity;BME280_pressure;Samples;Min_cycle;Max_cycle;Signal;HPM_P1;HPM_P2
2022/11/20 00:00:19;;;;;;;16.33;12.47;;;;;;;;;;5053793;28;20449;-77
2022/11/20 00:02:46;;;;;;;16.77;13.50;;;;;;;;;;5052780;28;20441;-76
2022/11/20 00:05:13;;;;;;;13.30;11.87;;;;;;;;;;5053724;28;20454;-76
2022/11/20 00:07:40;;;;;;;14.83;12.70;;;;;;;;;;5053529;28;20864;-76
2022/11/20 00:10:07;;;;;;;16.67;13.57;;;;;;;;;;5053748;28;20933;-76
2022/11/20 00:12:34;;;;;;;14.13;12.73;;;;;;;;;;5053728;28;20441;-75
2022/11/20 00:15:03;;;;;;;13.60;12.20;;;;;;;;;;5055353;28;20502;-76
2022/11/20 00:17:30;;;;;;;16.70;13.03;;;;;;;;;;5054272;28;20448;-76
2022/11/20 00:19:57;;;;;;;15.97;14.27;;;;;;;;;;5053761;28;20441;-75
2022/11/20 00:22:24;;;;;;;13.87;12.37;;;;;;;;;;5055475;28;20984;-76
2022/11/20 00:24:51;;;;;;;15.40;12.83;;;;;;;;;;5056039;28;20481;-76
2022/11/20 00:27:18;;;;;;;13.60;12.20;;;;;;;;;;5055230;28;20815;-76
2022/11/20 00:29:45;;;;;;;14.80;13.27;;;;;;;;;;5061982;28;20449;-77
2022/11/20 00:32:13;;;;;;;18.90;13.90;;;;;;;;;;5075318;28;20451;-76
2022/11/20 00:34:40;;;;;;;15.00;13.40;;;;;;;;;;5073889;28;20487;-76
2022/11/20 00:37:07;;;;;;;16.90;12.90;;;;;;;;;;5073983;28;20436;-77
2022/11/20 00:39:34;;;;;;;15.33;12.90;;;;;;;;;;5072303;28;20811;-77
2022/11/20 00:42:02;;;;;;;16.67;13.20;;;;;;;;;;5072777;28;20440;-76
2022/11/20 00:44:29;;;;;;;16.60;13.80;;;;;;;;;;5071687;28;20828;-76
2022/11/20 00:46:56;;;;;;;13.50;9.90;;;;;;;;;;5073086;28;20448;-77
2022/11/20 00:49:24;;;;;;;12.13;10.60;;;;;;;;;;5073034;28;20447;-76
2022/11/20 00:51:51;;;;;;;12.40;11.07;;;;;;;;;;5072826;28;20460;-76
2022/11/20 00:54:18;;;;;;;8.53;7.70;;;;;;;;;;5072130;28;20480;-75
2022/11/20 00:56:45;;;;;;;7.50;6.60;;;;;;;;;;5073145;28;20444;-76
2022/11/20 00:59:12;;;;;;;7.13;6.43;;;;;;;;;;5074548;28;20456;-76
2022/11/20 01:01:39;;;;;;;6.27;5.53;;;;;;;;;;5075410;28;20449;-76
2022/11/20 01:04:06;;;;;;;7.20;6.10;;;;;;;;;;5072383;28;20457;-76
2022/11/20 01:06:37;;;;;;;5.30;4.80;;;;;;;;;;5072791;28;20447;-77
2022/11/20 01:09:06;;;;;;;5.17;4.67;;;;;;;;;;5072657;28;20491;-76
2022/11/20 01:11:34;;;;;;;5.60;5.00;;;;;;;;;;5073068;28;20452;-76
2022/11/20 01:14:02;;;;;;;5.17;4.77;;;;;;;;;;5061841;28;20465;-75
2022/11/20 01:16:30;;;;;;;5.27;4.87;;;;;;;;;;5057064;28;20460;-76
2022/11/20 01:18:58;;;;;;;4.37;4.03;;;;;;;;;;5060635;28;20433;-76
2022/11/20 01:21:26;;;;;;;5.63;4.60;;;;;;;;;;5057838;28;20450;-76
2022/11/20 01:23:54;;;;;;;5.63;4.30;;;;;;;;;;5052478;28;20469;-76
2022/11/20 01:26:22;;;;;;;4.97;4.67;;;;;;;;;;5052642;28;20438;-76
2022/11/20 01:28:49;;;;;;;4.30;4.00;;;;;;;;;;5052029;28;20481;-75
2022/11/20 01:31:17;;;;;;;4.40;3.93;;;;;;;;;;5051919;28;20442;-75
2022/11/20 01:33:44;;;;;;;4.90;4.50;;;;;;;;;;5051106;28;20470;-75
2022/11/20 01:36:12;;;;;;;5.83;4.90;;;;;;;;;;5051860;28;20441;-76
2022/11/20 01:38:39;;;;;;;5.00;4.60;;;;;;;;;;5051927;28;20438;-77
2022/11/20 01:41:08;;;;;;;5.70;4.50;;;;;;;;;;5051715;28;20949;-76
2022/11/20 01:43:34;;;;;;;4.77;4.37;;;;;;;;;;5050723;28;20469;-76
2022/11/20 01:46:06;;;;;;;4.97;4.47;;;;;;;;;;5051735;28;20445;-76
2022/11/20 01:48:35;;;;;;;5.03;4.53;;;;;;;;;;5051775;28;20779;-75
2022/11/20 01:51:03;;;;;;;5.13;4.23;;;;;;;;;;5050312;28;20941;-75
2022/11/20 01:53:33;;;;;;;4.87;4.23;;;;;;;;;;5051323;28;20473;-77
2022/11/20 01:56:01;;;;;;;4.13;3.73;;;;;;;;;;5051960;28;20449;-76
2022/11/20 01:58:31;;;;;;;4.33;3.93;;;;;;;;;;5051484;28;20442;-75
2022/11/20 02:00:58;;;;;;;4.40;4.13;;;;;;;;;;5058614;28;20441;-76
2022/11/20 02:03:26;;;;;;;3.33;3.03;;;;;;;;;;5061026;28;20461;-76
2022/11/20 02:05:56;;;;;;;4.70;4.27;;;;;;;;;;5068041;28;20460;-76
2022/11/20 02:08:23;;;;;;;4.00;3.47;;;;;;;;;;5062343;28;20557;-77
2022/11/20 02:10:50;;;;;;;4.33;3.93;;;;;;;;;;5052196;28;20441;-76
2022/11/20 02:16:04;;;;;;;4.57;4.17;;;;;;;;;;5050826;28;20413;-77
2022/11/20 02:18:32;;;;;;;4.53;4.13;;;;;;;;;;5051015;28;20822;-76
2022/11/20 02:21:00;;;;;;;4.23;3.83;;;;;;;;;;5050965;28;20476;-76
2022/11/20 02:23:29;;;;;;;3.90;3.50;;;;;;;;;;5049910;28;20481;-77
2022/11/20 02:25:58;;;;;;;4.00;3.70;;;;;;;;;;5051233;28;20441;-77
2022/11/20 02:28:25;;;;;;;4.53;4.13;;;;;;;;;;5051221;28;20478;-76
2022/11/20 02:30:52;;;;;;;3.70;3.40;;;;;;;;;;5050976;28;20874;-76
2022/11/20 02:33:19;;;;;;;3.53;3.30;;;;;;;;;;5050511;28;20999;-76
2022/11/20 02:35:47;;;;;;;4.03;3.73;;;;;;;;;;5050545;28;20817;-76
2022/11/20 02:38:15;;;;;;;4.07;3.80;;;;;;;;;;5050625;28;20446;-76
2022/11/20 02:40:42;;;;;;;4.60;4.20;;;;;;;;;;5050569;28;20465;-76
2022/11/20 02:43:10;;;;;;;3.73;3.43;;;;;;;;;;5049839;28;20446;-76
2022/11/20 02:45:38;;;;;;;4.20;3.90;;;;;;;;;;5050207;28;20809;-76
2022/11/20 02:48:05;;;;;;;4.23;3.40;;;;;;;;;;5051051;28;20490;-76
2022/11/20 02:50:32;;;;;;;4.43;4.03;;;;;;;;;;5050464;28;20452;-77
2022/11/20 02:52:59;;;;;;;4.93;4.53;;;;;;;;;;5052539;28;20449;-76
2022/11/20 02:55:26;;;;;;;4.13;3.83;;;;;;;;;;5054336;28;20438;-76
2022/11/20 02:57:53;;;;;;;4.63;4.23;;;;;;;;;;5052007;28;20461;-76
2022/11/20 03:00:22;;;;;;;4.00;3.60;;;;;;;;;;5050900;28;20968;-76
2022/11/20 03:02:49;;;;;;;4.83;4.43;;;;;;;;;;5049443;28;20461;-77
2022/11/20 03:05:16;;;;;;;3.83;3.53;;;;;;;;;;5050100;28;20491;-75
2022/11/20 03:07:44;;;;;;;4.60;4.20;;;;;;;;;;5049812;28;20492;-76
2022/11/20 03:10:12;;;;;;;4.27;3.80;;;;;;;;;;5050197;28;20449;-75
2022/11/20 03:12:39;;;;;;;5.13;3.93;;;;;;;;;;5051544;28;20446;-76
2022/11/20 03:15:06;;;;;;;4.83;4.40;;;;;;;;;;5070634;28;20548;-76
2022/11/20 03:17:35;;;;;;;4.33;4.03;;;;;;;;;;5072108;28;20438;-76
2022/11/20 03:20:02;;;;;;;4.17;3.87;;;;;;;;;;5080278;28;20445;-76
2022/11/20 03:22:30;;;;;;;4.33;4.03;;;;;;;;;;5079468;28;20448;-76
2022/11/20 03:24:57;;;;;;;4.80;4.50;;;;;;;;;;5085807;28;20503;-75
2022/11/20 03:27:24;;;;;;;4.60;4.30;;;;;;;;;;5080083;28;20940;-77
2022/11/20 03:29:51;;;;;;;4.43;4.10;;;;;;;;;;5074103;28;20455;-77
2022/11/20 03:32:18;;;;;;;4.43;4.13;;;;;;;;;;5071553;28;20444;-76
2022/11/20 03:34:46;;;;;;;4.40;4.10;;;;;;;;;;5071055;28;20464;-77
2022/11/20 03:37:14;;;;;;;5.30;4.90;;;;;;;;;;5071419;28;20780;-77
2022/11/20 03:39:41;;;;;;;5.43;4.93;;;;;;;;;;5071477;28;20448;-77
2022/11/20 03:42:44;;;;;;;5.00;4.10;;;;;;;;;;5071068;28;20453;-76
2022/11/20 03:44:55;;;;;;;5.27;4.87;;;;;;;;;;5069708;28;20467;-76
2022/11/20 03:47:22;;;;;;;5.20;4.80;;;;;;;;;;5070466;28;20444;-76
2022/11/20 03:49:50;;;;;;;4.93;4.57;;;;;;;;;;5070678;28;20477;-76
2022/11/20 03:52:17;;;;;;;5.13;4.73;;;;;;;;;;5070936;28;20449;-76
2022/11/20 03:54:44;;;;;;;5.00;4.60;;;;;;;;;;5070860;28;20687;-76
2022/11/20 03:57:11;;;;;;;5.20;4.83;;;;;;;;;;5071895;28;20440;-77
2022/11/20 03:59:38;;;;;;;5.40;5.00;;;;;;;;;;5070217;28;20455;-76
2022/11/20 04:02:05;;;;;;;5.57;5.07;;;;;;;;;;5069765;28;20451;-76
2022/11/20 04:04:32;;;;;;;5.07;4.77;;;;;;;;;;5069194;28;20468;-76
2022/11/20 04:07:01;;;;;;;5.23;4.83;;;;;;;;;;5070420;28;20457;-77
2022/11/20 04:09:28;;;;;;;5.70;5.30;;;;;;;;;;5071860;28;20477;-76
2022/11/20 04:11:55;;;;;;;6.07;5.47;;;;;;;;;;5070165;28;20952;-76
2022/11/20 04:14:22;;;;;;;6.80;6.13;;;;;;;;;;5056871;28;20457;-77
2022/11/20 04:16:49;;;;;;;6.60;5.30;;;;;;;;;;5055295;28;20446;-77
2022/11/20 04:19:17;;;;;;;6.40;5.80;;;;;;;;;;5053637;28;20812;-75
2022/11/20 04:21:45;;;;;;;8.00;5.03;;;;;;;;;;5053516;28;20547;-76
2022/11/20 04:24:13;;;;;;;5.53;4.97;;;;;;;;;;5052506;28;20851;-76
2022/11/20 04:26:41;;;;;;;5.70;5.20;;;;;;;;;;5053846;28;20456;-75
2022/11/20 04:29:08;;;;;;;5.30;4.90;;;;;;;;;;5053051;28;20489;-76
2022/11/20 04:31:36;;;;;;;6.57;5.80;;;;;;;;;;5053230;28;20451;-77
2022/11/20 04:34:03;;;;;;;5.20;4.90;;;;;;;;;;5052769;28;20469;-76
2022/11/20 04:36:31;;;;;;;5.70;5.30;;;;;;;;;;5053585;28;20471;-76
2022/11/20 04:38:58;;;;;;;6.80;5.57;;;;;;;;;;5055524;28;20448;-75
2022/11/20 04:41:28;;;;;;;5.73;5.33;;;;;;;;;;5056330;28;20449;-76
2022/11/20 04:43:59;;;;;;;7.23;5.53;;;;;;;;;;5053903;28;20454;-76
2022/11/20 04:46:26;;;;;;;5.63;5.23;;;;;;;;;;5053602;28;20794;-76
2022/11/20 04:48:54;;;;;;;5.43;5.03;;;;;;;;;;5055872;28;21028;-76
2022/11/20 04:51:21;;;;;;;5.87;5.40;;;;;;;;;;5056018;28;20441;-76
2022/11/20 04:53:48;;;;;;;5.80;5.30;;;;;;;;;;5055825;28;20472;-76
2022/11/20 04:56:15;;;;;;;5.60;4.90;;;;;;;;;;5052046;28;20517;-76
2022/11/20 04:58:44;;;;;;;5.87;5.37;;;;;;;;;;5052674;28;20448;-76
2022/11/20 05:01:11;;;;;;;5.17;4.77;;;;;;;;;;5052462;28;20607;-76
2022/11/20 05:03:39;;;;;;;5.63;5.23;;;;;;;;;;5051903;28;20477;-76
2022/11/20 05:06:06;;;;;;;6.40;4.90;;;;;;;;;;5052227;28;20445;-76
2022/11/20 05:08:33;;;;;;;6.63;5.93;;;;;;;;;;5052276;28;20488;-75
2022/11/20 05:11:01;;;;;;;5.43;5.13;;;;;;;;;;5051990;28;20849;-77
2022/11/20 05:13:28;;;;;;;6.37;5.87;;;;;;;;;;5060475;28;20905;-77
2022/11/20 05:15:57;;;;;;;6.20;5.43;;;;;;;;;;5072204;28;20448;-77
2022/11/20 05:18:24;;;;;;;6.10;5.60;;;;;;;;;;5072170;28;20441;-76
2022/11/20 05:20:56;;;;;;;4.87;4.57;;;;;;;;;;5072320;28;20467;-77
2022/11/20 05:23:23;;;;;;;4.97;4.57;;;;;;;;;;5071442;28;20841;-76
2022/11/20 05:25:53;;;;;;;5.53;5.13;;;;;;;;;;5071792;28;20920;-76
2022/11/20 05:28:20;;;;;;;5.50;5.00;;;;;;;;;;5071703;28;20967;-76
2022/11/20 05:30:47;;;;;;;5.60;5.30;;;;;;;;;;5071963;28;20441;-77
2022/11/20 05:33:15;;;;;;;5.20;4.80;;;;;;;;;;5070923;28;20440;-77
2022/11/20 05:35:42;;;;;;;5.37;4.97;;;;;;;;;;5071638;28;20936;-77
2022/11/20 05:38:09;;;;;;;4.90;4.50;;;;;;;;;;5071897;28;20445;-76
2022/11/20 05:40:36;;;;;;;5.37;4.87;;;;;;;;;;5072085;28;20451;-76
2022/11/20 05:43:03;;;;;;;5.33;4.93;;;;;;;;;;5071162;28;20448;-77
2022/11/20 05:45:31;;;;;;;5.17;4.77;;;;;;;;;;5071994;28;20949;-76
2022/11/20 05:47:59;;;;;;;5.10;4.70;;;;;;;;;;5071468;28;20441;-77
2022/11/20 05:50:28;;;;;;;5.73;5.20;;;;;;;;;;5071461;28;20504;-77
2022/11/20 05:52:55;;;;;;;5.43;5.03;;;;;;;;;;5070688;28;20449;-77
2022/11/20 05:55:22;;;;;;;5.07;4.70;;;;;;;;;;5071721;28;20441;-76
2022/11/20 05:57:49;;;;;;;5.73;5.33;;;;;;;;;;5071758;28;20445;-77
2022/11/20 06:00:17;;;;;;;5.30;4.93;;;;;;;;;;5071287;28;20531;-76
2022/11/20 06:02:44;;;;;;;5.33;4.83;;;;;;;;;;5071175;28;20445;-78
2022/11/20 06:05:11;;;;;;;5.67;5.23;;;;;;;;;;5071186;28;20515;-76
2022/11/20 06:07:39;;;;;;;5.33;4.93;;;;;;;;;;5071310;28;20444;-77
2022/11/20 06:10:06;;;;;;;5.37;4.47;;;;;;;;;;5071009;28;20476;-77
2022/11/20 06:12:33;;;;;;;7.67;6.87;;;;;;;;;;5069280;28;20453;-76
2022/11/20 06:15:01;;;;;;;5.60;5.20;;;;;;;;;;5051108;28;20462;-77
2022/11/20 06:17:28;;;;;;;4.73;4.27;;;;;;;;;;5051245;28;20446;-77
2022/11/20 06:19:55;;;;;;;5.37;4.87;;;;;;;;;;5050985;28;20438;-77
2022/11/20 06:22:22;;;;;;;4.73;4.33;;;;;;;;;;5051019;28;20461;-76
2022/11/20 06:24:50;;;;;;;5.03;4.63;;;;;;;;;;5050316;28;20568;-76
2022/11/20 06:27:17;;;;;;;4.27;3.97;;;;;;;;;;5051305;28;20445;-75
2022/11/20 06:29:45;;;;;;;4.47;4.07;;;;;;;;;;5050913;28;20473;-76
2022/11/20 06:32:12;;;;;;;5.17;4.73;;;;;;;;;;5051515;28;20442;-75
2022/11/20 06:34:39;;;;;;;4.57;4.17;;;;;;;;;;5050451;28;20461;-76
2022/11/20 06:37:06;;;;;;;4.53;4.13;;;;;;;;;;5050723;28;20446;-76
2022/11/20 06:39:33;;;;;;;3.93;3.70;;;;;;;;;;5051182;28;20442;-77
2022/11/20 06:42:01;;;;;;;4.37;3.97;;;;;;;;;;5051246;28;20438;-77
2022/11/20 06:44:28;;;;;;;7.83;4.67;;;;;;;;;;5050284;28;20463;-76
2022/11/20 06:46:55;;;;;;;4.50;4.10;;;;;;;;;;5051175;28;20481;-76
2022/11/20 06:49:22;;;;;;;4.37;4.03;;;;;;;;;;5052129;28;20481;-76
2022/11/20 06:51:49;;;;;;;4.70;4.30;;;;;;;;;;5052286;28;20453;-77
2022/11/20 06:54:16;;;;;;;4.20;3.90;;;;;;;;;;5049601;28;20462;-76
2022/11/20 06:56:43;;;;;;;3.97;3.70;;;;;;;;;;5050468;28;20442;-76
2022/11/20 06:59:12;;;;;;;7.00;4.50;;;;;;;;;;5050801;28;20569;-76
2022/11/20 07:01:39;;;;;;;4.13;3.83;;;;;;;;;;5051549;28;20524;-76
2022/11/20 07:04:06;;;;;;;5.27;4.47;;;;;;;;;;5056451;28;20596;-76
2022/11/20 07:06:33;;;;;;;3.80;3.50;;;;;;;;;;5051406;28;20441;-76
2022/11/20 07:09:01;;;;;;;3.80;3.60;;;;;;;;;;5053105;28;20477;-76
2022/11/20 07:11:28;;;;;;;3.53;3.07;;;;;;;;;;5053154;28;20492;-76
2022/11/20 07:13:55;;;;;;;3.70;3.27;;;;;;;;;;5062238;28;20940;-76
2022/11/20 07:16:23;;;;;;;4.10;3.67;;;;;;;;;;5070519;28;20515;-75
2022/11/20 07:18:50;;;;;;;4.70;3.10;;;;;;;;;;5070555;28;20834;-77
2022/11/20 07:21:18;;;;;;;3.57;3.37;;;;;;;;;;5070101;28;20955;-77
2022/11/20 07:23:45;;;;;;;3.63;3.43;;;;;;;;;;5069705;28;20480;-77
2022/11/20 07:26:12;;;;;;;5.37;4.10;;;;;;;;;;5070069;28;20448;-77
2022/11/20 07:28:39;;;;;;;3.50;3.30;;;;;;;;;;5069828;28;20440;-76
2022/11/20 07:31:07;;;;;;;3.53;3.33;;;;;;;;;;5070107;28;20455;-77
2022/11/20 07:33:35;;;;;;;3.60;3.33;;;;;;;;;;5069826;28;20908;-77
2022/11/20 07:36:03;;;;;;;3.33;3.13;;;;;;;;;;5070418;28;20442;-77
2022/11/20 07:38:30;;;;;;;3.90;3.60;;;;;;;;;;5071745;28;20467;-76
2022/11/20 07:40:57;;;;;;;3.50;3.20;;;;;;;;;;5075333;28;20449;-78
2022/11/20 07:43:25;;;;;;;3.60;3.40;;;;;;;;;;5078717;28;20461;-76
2022/11/20 07:45:52;;;;;;;4.90;4.27;;;;;;;;;;5079357;28;20737;-76
2022/11/20 07:48:19;;;;;;;3.83;3.20;;;;;;;;;;5073037;28;20449;-77
2022/11/20 07:50:47;;;;;;;3.60;3.30;;;;;;;;;;5074674;28;20544;-77
2022/11/20 07:53:20;;;;;;;3.90;3.40;;;;;;;;;;5073983;28;20445;-77
2022/11/20 07:55:47;;;;;;;4.13;3.40;;;;;;;;;;5077209;28;20477;-76
2022/11/20 07:58:14;;;;;;;3.13;2.93;;;;;;;;;;5074936;28;20453;-76
2022/11/20 08:00:41;;;;;;;6.27;3.57;;;;;;;;;;5073827;28;20440;-76
2022/11/20 08:03:09;;;;;;;2.83;2.70;;;;;;;;;;5073016;28;20445;-77
2022/11/20 08:05:37;;;;;;;2.80;2.60;;;;;;;;;;5073688;28;20444;-77
2022/11/20 08:08:06;;;;;;;3.00;2.80;;;;;;;;;;5073709;28;20964;-77
2022/11/20 08:10:33;;;;;;;2.90;2.70;;;;;;;;;;5073871;28;20503;-76
2022/11/20 08:15:49;;;;;;;2.90;2.77;;;;;;;;;;5054160;28;20422;-77
2022/11/20 08:18:16;;;;;;;4.57;4.17;;;;;;;;;;5053623;28;20456;-77
2022/11/20 08:20:43;;;;;;;4.60;4.20;;;;;;;;;;5053214;28;20446;-76
2022/11/20 08:23:11;;;;;;;4.13;3.83;;;;;;;;;;5052959;28;20461;-77
2022/11/20 08:25:39;;;;;;;2.60;2.50;;;;;;;;;;5053497;28;20438;-77
2022/11/20 08:28:07;;;;;;;2.90;2.70;;;;;;;;;;5053221;28;20450;-77
2022/11/20 08:30:34;;;;;;;3.80;2.70;;;;;;;;;;5052905;28;20525;-77
2022/11/20 08:33:02;;;;;;;2.90;2.70;;;;;;;;;;5052103;28;20456;-77
2022/11/20 08:35:30;;;;;;;2.47;2.27;;;;;;;;;;5053017;28;20447;-77
2022/11/20 08:37:57;;;;;;;2.73;2.53;;;;;;;;;;5053176;28;20448;-77
2022/11/20 08:40:25;;;;;;;2.83;2.67;;;;;;;;;;5052968;28;20446;-77
2022/11/20 08:42:52;;;;;;;3.03;2.83;;;;;;;;;;5052406;28;20455;-77
2022/11/20 08:45:20;;;;;;;3.00;2.70;;;;;;;;;;5052784;28;20496;-77
2022/11/20 08:47:47;;;;;;;4.10;2.47;;;;;;;;;;5052774;28;20955;-77
2022/11/20 08:50:16;;;;;;;2.73;2.60;;;;;;;;;;5053544;28;20485;-76
2022/11/20 08:52:43;;;;;;;2.73;2.57;;;;;;;;;;5052255;28;20448;-77
2022/11/20 08:55:10;;;;;;;2.23;2.13;;;;;;;;;;5052854;28;20461;-77
2022/11/20 08:57:39;;;;;;;2.80;2.10;;;;;;;;;;5053237;28;20446;-77
2022/11/20 09:00:07;;;;;;;2.47;2.30;;;;;;;;;;5052610;28;20869;-77
2022/11/20 09:02:35;;;;;;;2.50;2.33;;;;;;;;;;5053716;28;20437;-76
2022/11/20 09:05:03;;;;;;;2.63;2.43;;;;;;;;;;5054706;28;20479;-76
2022/11/20 09:07:30;;;;;;;2.53;2.43;;;;;;;;;;5053383;28;20441;-76
2022/11/20 09:09:57;;;;;;;2.37;2.10;;;;;;;;;;5052489;28;21023;-77
2022/11/20 09:12:24;;;;;;;1.70;1.70;;;;;;;;;;5053655;28;20453;-76
2022/11/20 09:14:53;;;;;;;2.07;1.97;;;;;;;;;;5073193;28;20474;-77
2022/11/20 09:17:20;;;;;;;1.90;1.80;;;;;;;;;;5072828;28;20442;-76
2022/11/20 09:19:48;;;;;;;1.53;1.43;;;;;;;;;;5072193;28;20478;-77
2022/11/20 09:22:15;;;;;;;2.80;1.40;;;;;;;;;;5072491;28;20442;-77
2022/11/20 09:24:42;;;;;;;1.50;1.50;;;;;;;;;;5072106;28;20475;-77
2022/11/20 09:27:09;;;;;;;2.00;1.53;;;;;;;;;;5073407;28;20454;-77
2022/11/20 09:29:36;;;;;;;2.00;1.90;;;;;;;;;;5073928;28;20477;-77
2022/11/20 09:32:05;;;;;;;1.50;1.40;;;;;;;;;;5074051;28;20457;-77
2022/11/20 09:34:33;;;;;;;1.70;1.60;;;;;;;;;;5073969;28;20464;-77
2022/11/20 09:37:00;;;;;;;1.97;1.70;;;;;;;;;;5075279;28;20539;-76
2022/11/20 09:39:27;;;;;;;1.57;1.57;;;;;;;;;;5072718;28;20965;-76
2022/11/20 09:42:09;;;;;;;1.60;1.50;;;;;;;;;;5074048;28;20444;-76
2022/11/20 09:44:41;;;;;;;1.20;1.20;;;;;;;;;;5071672;28;20477;-77
2022/11/20 09:47:12;;;;;;;1.03;1.03;;;;;;;;;;5072352;28;20789;-77
2022/11/20 09:49:48;;;;;;;1.30;1.30;;;;;;;;;;5073415;28;20476;-77
2022/11/20 09:52:23;;;;;;;2.00;1.10;;;;;;;;;;5072075;28;20467;-77
2022/11/20 09:54:51;;;;;;;1.27;1.17;;;;;;;;;;5071794;28;20464;-77
2022/11/20 09:57:20;;;;;;;1.23;1.23;;;;;;;;;;5073041;28;20467;-77
2022/11/20 09:59:49;;;;;;;1.23;1.23;;;;;;;;;;5074372;28;20442;-77
2022/11/20 10:02:25;;;;;;;1.20;1.20;;;;;;;;;;5073096;28;20449;-77
2022/11/20 10:04:54;;;;;;;1.07;1.07;;;;;;;;;;5073122;28;21019;-77
2022/11/20 10:07:24;;;;;;;1.10;1.10;;;;;;;;;;5073538;28;20474;-77
2022/11/20 10:09:52;;;;;;;1.00;1.00;;;;;;;;;;5071588;28;20481;-77
2022/11/20 10:12:21;;;;;;;1.20;1.20;;;;;;;;;;5071033;28;20451;-76
2022/11/20 10:15:04;;;;;;;1.20;1.20;;;;;;;;;;5071100;28;20606;-78
2022/11/20 10:17:41;;;;;;;1.40;1.40;;;;;;;;;;5071489;28;20456;-78
2022/11/20 10:20:16;;;;;;;1.13;1.13;;;;;;;;;;5071120;28;20444;-77
2022/11/20 10:22:52;;;;;;;1.20;1.20;;;;;;;;;;5070624;28;20444;-77
2022/11/20 10:25:20;;;;;;;1.40;1.30;;;;;;;;;;5070980;28;20465;-77
2022/11/20 10:27:58;;;;;;;1.20;1.20;;;;;;;;;;5071069;28;20450;-77
2022/11/20 10:30:25;;;;;;;1.27;1.20;;;;;;;;;;5071852;28;20484;-78
2022/11/20 10:32:56;;;;;;;1.10;1.10;;;;;;;;;;5071024;28;20476;-76
2022/11/20 10:35:25;;;;;;;1.70;1.60;;;;;;;;;;5071576;28;20449;-76
2022/11/20 10:37:54;;;;;;;1.50;1.37;;;;;;;;;;5071528;28;20447;-77
2022/11/20 10:40:24;;;;;;;1.37;1.37;;;;;;;;;;5071108;28;20443;-76
2022/11/20 10:42:55;;;;;;;1.50;1.50;;;;;;;;;;5070369;28;20855;-76
2022/11/20 10:45:28;;;;;;;1.50;1.40;;;;;;;;;;5071032;28;20882;-76
2022/11/20 10:48:02;;;;;;;1.50;1.50;;;;;;;;;;5071441;28;20462;-77
2022/11/20 10:50:30;;;;;;;1.60;1.50;;;;;;;;;;5071898;28;20472;-76
2022/11/20 10:53:00;;;;;;;1.97;1.80;;;;;;;;;;5070805;28;20448;-76
2022/11/20 10:55:33;;;;;;;3.63;3.00;;;;;;;;;;5071291;28;20834;-76
2022/11/20 10:58:06;;;;;;;1.70;1.60;;;;;;;;;;5071006;28;20454;-76
2022/11/20 11:00:34;;;;;;;1.80;1.70;;;;;;;;;;5071212;28;20472;-76
2022/11/20 11:03:03;;;;;;;3.97;1.90;;;;;;;;;;5084158;28;20444;-77
2022/11/20 11:05:38;;;;;;;1.77;1.73;;;;;;;;;;5083501;28;20447;-77
2022/11/20 11:08:09;;;;;;;1.30;1.20;;;;;;;;;;5084195;28;20505;-76
2022/11/20 11:10:41;;;;;;;2.00;1.90;;;;;;;;;;5084143;28;20477;-77
2022/11/20 11:13:08;;;;;;;1.73;1.63;;;;;;;;;;5076512;28;21016;-77
2022/11/20 11:15:39;;;;;;;2.03;1.83;;;;;;;;;;5063281;28;20446;-77
2022/11/20 11:18:10;;;;;;;1.50;1.50;;;;;;;;;;5062917;28;20459;-77
2022/11/20 11:20:37;;;;;;;2.47;2.27;;;;;;;;;;5063937;28;20434;-77
2022/11/20 11:23:04;;;;;;;3.00;2.10;;;;;;;;;;5062119;28;20943;-77
2022/11/20 11:25:33;;;;;;;2.10;1.60;;;;;;;;;;5054686;28;21015;-76
2022/11/20 11:28:01;;;;;;;2.30;2.10;;;;;;;;;;5053859;28;20508;-78
2022/11/20 11:30:31;;;;;;;2.30;2.10;;;;;;;;;;5053434;28;20538;-77
2022/11/20 11:33:06;;;;;;;2.50;2.40;;;;;;;;;;5051498;28;20464;-76
2022/11/20 11:35:35;;;;;;;2.50;2.40;;;;;;;;;;5051888;28;20440;-77
2022/11/20 11:38:06;;;;;;;2.23;2.13;;;;;;;;;;5050973;28;20452;-76
2022/11/20 11:40:35;;;;;;;2.87;2.63;;;;;;;;;;5051148;28;20447;-77
2022/11/20 11:43:03;;;;;;;3.90;2.60;;;;;;;;;;5050563;28;20451;-76
2022/11/20 11:45:29;;;;;;;3.50;2.70;;;;;;;;;;5052433;28;20814;-78
2022/11/20 11:48:00;;;;;;;2.33;2.10;;;;;;;;;;5051786;28;20815;-76
2022/11/20 11:50:28;;;;;;;2.20;2.03;;;;;;;;;;5052194;28;20487;-77
2022/11/20 11:53:05;;;;;;;2.47;2.27;;;;;;;;;;5052469;28;20444;-77
2022/11/20 11:55:34;;;;;;;2.60;2.40;;;;;;;;;;5053300;28;20433;-77
2022/11/20 11:58:08;;;;;;;3.17;2.30;;;;;;;;;;5051914;28;20446;-77
2022/11/20 12:00:36;;;;;;;2.63;2.43;;;;;;;;;;5051190;28;20440;-76
2022/11/20 12:03:06;;;;;;;2.43;2.23;;;;;;;;;;5050027;28;20445;-78
2022/11/20 12:05:38;;;;;;;2.20;1.97;;;;;;;;;;5050726;28;20462;-77
2022/11/20 12:08:07;;;;;;;2.40;1.83;;;;;;;;;;5050063;28;20855;-77
2022/11/20 12:10:39;;;;;;;2.03;1.93;;;;;;;;;;5049699;28;20476;-76
2022/11/20 12:13:11;;;;;;;1.93;1.83;;;;;;;;;;5057997;28;20443;-77
2022/11/20 12:15:40;;;;;;;2.23;2.03;;;;;;;;;;5069545;28;20449;-76
2022/11/20 12:18:11;;;;;;;1.90;1.80;;;;;;;;;;5069386;28;20451;-77
2022/11/20 12:20:43;;;;;;;1.80;1.70;;;;;;;;;;5069814;28;20447;-77
2022/11/20 12:23:18;;;;;;;1.73;1.63;;;;;;;;;;5069019;28;20456;-77
2022/11/20 12:25:49;;;;;;;2.20;2.00;;;;;;;;;;5069748;28;20458;-76
2022/11/20 12:28:29;;;;;;;1.50;1.47;;;;;;;;;;5070513;28;20446;-77
2022/11/20 12:31:04;;;;;;;2.07;1.97;;;;;;;;;;5070235;28;20490;-76
2022/11/20 12:33:46;;;;;;;1.97;1.20;;;;;;;;;;5070398;28;20463;-76
2022/11/20 12:36:19;;;;;;;4.93;1.77;;;;;;;;;;5076190;28;20451;-76
2022/11/20 12:39:16;;;;;;;2.40;1.57;;;;;;;;;;5077947;28;20820;-77
2022/11/20 12:47:36;;;;;;;3.17;1.80;;;;;;;;;;5078604;28;20441;-77
2022/11/20 12:50:10;;;;;;;1.50;1.40;;;;;;;;;;5076527;28;20451;-76
2022/11/20 12:52:40;;;;;;;2.73;1.40;;;;;;;;;;5074500;28;20458;-77
2022/11/20 12:55:22;;;;;;;1.50;1.40;;;;;;;;;;5076219;28;20456;-77
2022/11/20 12:57:52;;;;;;;1.43;1.30;;;;;;;;;;5073777;28;20447;-78
2022/11/20 13:00:20;;;;;;;1.60;1.30;;;;;;;;;;5075862;28;20441;-76
2022/11/20 13:03:01;;;;;;;1.57;1.47;;;;;;;;;;5072116;28;20970;-77
2022/11/20 13:05:31;;;;;;;1.67;1.53;;;;;;;;;;5072478;28;20448;-78
2022/11/20 13:07:59;;;;;;;2.50;1.60;;;;;;;;;;5072138;28;20443;-78
2022/11/20 13:10:33;;;;;;;5.57;1.50;;;;;;;;;;5072414;28;20918;-77
2022/11/20 13:13:04;;;;;;;1.23;1.17;;;;;;;;;;5071649;28;20444;-77
2022/11/20 13:15:38;;;;;;;5.03;1.40;;;;;;;;;;5072559;28;20444;-77
2022/11/20 13:18:06;;;;;;;4.00;2.27;;;;;;;;;;5072605;28;21037;-78
2022/11/20 13:20:34;;;;;;;1.17;1.17;;;;;;;;;;5072499;28;20940;-78
2022/11/20 13:23:01;;;;;;;1.33;1.33;;;;;;;;;;5072670;28;20457;-77
2022/11/20 13:25:30;;;;;;;1.40;1.30;;;;;;;;;;5072987;28;20811;-76
2022/11/20 13:27:58;;;;;;;1.30;1.20;;;;;;;;;;5072914;28;20451;-77
2022/11/20 13:30:28;;;;;;;4.30;1.30;;;;;;;;;;5072628;28;20470;-77
2022/11/20 13:32:56;;;;;;;0.90;0.90;;;;;;;;;;5072076;28;20682;-77
2022/11/20 13:35:27;;;;;;;1.13;1.13;;;;;;;;;;5072917;28;20517;-77
2022/11/20 13:38:01;;;;;;;1.23;1.13;;;;;;;;;;5072568;28;20452;-79
2022/11/20 13:40:29;;;;;;;1.43;1.23;;;;;;;;;;5072381;28;20451;-78
2022/11/20 13:42:57;;;;;;;1.33;1.30;;;;;;;;;;5071725;28;20936;-78
2022/11/20 13:45:27;;;;;;;2.57;1.70;;;;;;;;;;5073180;28;20456;-77
2022/11/20 13:47:55;;;;;;;1.83;1.40;;;;;;;;;;5072468;28;20449;-78
2022/11/20 13:50:29;;;;;;;1.17;1.17;;;;;;;;;;5072018;28;20455;-77
2022/11/20 13:53:00;;;;;;;1.33;1.00;;;;;;;;;;5071018;28;20448;-77
2022/11/20 13:55:32;;;;;;;1.27;1.20;;;;;;;;;;5071646;28;20447;-77
2022/11/20 13:58:05;;;;;;;1.50;1.47;;;;;;;;;;5071567;28;20558;-78
2022/11/20 14:00:33;;;;;;;1.97;1.57;;;;;;;;;;5071962;28;20448;-78
2022/11/20 14:03:03;;;;;;;1.30;1.30;;;;;;;;;;5071135;28;20967;-77
2022/11/20 14:05:33;;;;;;;1.10;1.10;;;;;;;;;;5071337;28;20957;-77
2022/11/20 14:08:00;;;;;;;1.10;1.10;;;;;;;;;;5071803;28;20515;-78
2022/11/20 14:10:28;;;;;;;1.37;1.20;;;;;;;;;;5072206;28;20467;-78
2022/11/20 14:12:55;;;;;;;1.30;1.20;;;;;;;;;;5066554;28;20450;-78
2022/11/20 14:15:26;;;;;;;2.53;1.37;;;;;;;;;;5051394;28;20681;-77
2022/11/20 14:17:55;;;;;;;1.53;1.43;;;;;;;;;;5051829;28;20520;-77
2022/11/20 14:20:25;;;;;;;1.40;1.40;;;;;;;;;;5052032;28;20485;-78
2022/11/20 14:22:52;;;;;;;1.53;1.43;;;;;;;;;;5051643;28;20464;-78
2022/11/20 14:25:23;;;;;;;1.47;1.33;;;;;;;;;;5051442;28;20474;-77
2022/11/20 14:27:53;;;;;;;1.43;1.33;;;;;;;;;;5051972;28;20429;-77
2022/11/20 14:30:21;;;;;;;1.80;1.70;;;;;;;;;;5051035;28;20951;-77
2022/11/20 14:32:49;;;;;;;2.60;1.80;;;;;;;;;;5050406;28;20485;-78
2022/11/20 14:35:19;;;;;;;3.70;1.70;;;;;;;;;;5051176;28;20993;-77
2022/11/20 14:37:47;;;;;;;2.10;1.87;;;;;;;;;;5051189;28;20472;-77
2022/11/20 14:40:25;;;;;;;3.23;1.83;;;;;;;;;;5050830;28;20437;-77
2022/11/20 14:42:52;;;;;;;1.60;1.30;;;;;;;;;;5050788;28;20960;-77
2022/11/20 14:45:20;;;;;;;2.00;1.40;;;;;;;;;;5050806;28;20556;-78
2022/11/20 14:47:47;;;;;;;2.30;1.57;;;;;;;;;;5051150;28;20438;-77
2022/11/20 14:50:17;;;;;;;2.13;1.97;;;;;;;;;;5051019;28;20949;-78
2022/11/20 14:52:52;;;;;;;2.10;1.90;;;;;;;;;;5050468;28;20610;-77
2022/11/20 14:55:29;;;;;;;2.60;2.00;;;;;;;;;;5050792;28;20465;-76
2022/11/20 14:57:57;;;;;;;2.00;1.87;;;;;;;;;;5050221;28;20441;-77
2022/11/20 15:00:25;;;;;;;2.77;2.00;;;;;;;;;;5050838;28;20466;-77